sensor_id;sensor_type;location;lat;lon;timestamp;P1;durP1;ratioP1;P2;durP2;ratioP2
9767;SDS011;4923;52.520;13.494;2023-04-15T00:02:28;38.90;;;22.85;;
9767;SDS011;4923;52.520;13.494;2023-04-15T00:05:15;45.92;;;25.52;;
9767;SDS011;4923;52.520;13.494;2023-04-15T00:08:02;46.08;;;24.17;;
9767;SDS011;4923;52.520;13.494;2023-04-15T00:10:49;44.85;;;24.13;;
9767;SDS011;4923;52.520;13.494;2023-04-15T00:13:38;50.03;;;26.05;;
9767;SDS011;4923;52.520;13.494;2023-04-15T00:16:25;49.85;;;26.80;;
9767;SDS011;4923;52.520;13.494;2023-04-15T00:19:12;49.60;;;25.42;;
9767;SDS011;4923;52.520;13.494;2023-04-15T00:21:59;54.35;;;27.40;;
9767;SDS011;4923;52.520;13.494;2023-04-15T00:24:46;50.50;;;25.52;;
9767;SDS011;4923;52.520;13.494;2023-04-15T00:27:33;51.17;;;26.65;;
9767;SDS011;4923;52.520;13.494;2023-04-15T00:30:21;47.45;;;26.20;;
9767;SDS011;4923;52.520;13.494;2023-04-15T00:33:08;54.95;;;27.33;;
9767;SDS011;4923;52.520;13.494;2023-04-15T00:35:55;49.13;;;27.15;;
9767;SDS011;4923;52.520;13.494;2023-04-15T00:38:42;52.75;;;27.35;;
9767;SDS011;4923;52.520;13.494;2023-04-15T00:41:28;53.33;;;28.38;;
9767;SDS011;4923;52.520;13.494;2023-04-15T00:44:16;51.83;;;26.05;;
9767;SDS011;4923;52.520;13.494;2023-04-15T00:47:05;55.20;;;26.23;;
9767;SDS011;4923;52.520;13.494;2023-04-15T00:49:52;49.78;;;25.52;;
9767;SDS011;4923;52.520;13.494;2023-04-15T00:52:39;51.55;;;26.52;;
9767;SDS011;4923;52.520;13.494;2023-04-15T00:55:26;57.97;;;28.73;;
9767;SDS011;4923;52.520;13.494;2023-04-15T00:58:13;59.53;;;29.27;;
9767;SDS011;4923;52.520;13.494;2023-04-15T01:01:00;57.80;;;28.45;;
9767;SDS011;4923;52.520;13.494;2023-04-15T01:03:50;57.15;;;28.38;;
9767;SDS011;4923;52.520;13.494;2023-04-15T01:06:37;55.40;;;27.17;;
9767;SDS011;4923;52.520;13.494;2023-04-15T01:09:24;56.47;;;27.45;;
9767;SDS011;4923;52.520;13.494;2023-04-15T01:12:11;50.42;;;26.75;;
9767;SDS011;4923;52.520;13.494;2023-04-15T01:14:59;60.05;;;28.90;;
9767;SDS011;4923;52.520;13.494;2023-04-15T01:17:47;54.42;;;28.35;;
9767;SDS011;4923;52.520;13.494;2023-04-15T01:20:35;56.72;;;27.90;;
9767;SDS011;4923;52.520;13.494;2023-04-15T01:23:22;56.10;;;27.98;;
9767;SDS011;4923;52.520;13.494;2023-04-15T01:26:10;57.03;;;27.20;;
9767;SDS011;4923;52.520;13.494;2023-04-15T01:28:57;61.67;;;28.75;;
9767;SDS011;4923;52.520;13.494;2023-04-15T01:31:48;55.50;;;26.75;;
9767;SDS011;4923;52.520;13.494;2023-04-15T01:34:36;54.20;;;27.02;;
9767;SDS011;4923;52.520;13.494;2023-04-15T01:37:22;58.83;;;28.52;;
9767;SDS011;4923;52.520;13.494;2023-04-15T01:40:10;52.90;;;26.42;;
9767;SDS011;4923;52.520;13.494;2023-04-15T01:42:59;60.45;;;27.55;;
9767;SDS011;4923;52.520;13.494;2023-04-15T01:45:46;61.30;;;27.70;;
9767;SDS011;4923;52.520;13.494;2023-04-15T01:48:33;52.15;;;26.27;;
9767;SDS011;4923;52.520;13.494;2023-04-15T01:51:20;54.67;;;26.83;;
9767;SDS011;4923;52.520;13.494;2023-04-15T01:54:07;48.92;;;26.13;;
9767;SDS011;4923;52.520;13.494;2023-04-15T01:56:54;51.78;;;27.10;;
9767;SDS011;4923;52.520;13.494;2023-04-15T01:59:42;59.80;;;28.13;;
9767;SDS011;4923;52.520;13.494;2023-04-15T02:02:29;61.90;;;27.27;;
9767;SDS011;4923;52.520;13.494;2023-04-15T02:05:16;52.83;;;26.73;;
9767;SDS011;4923;52.520;13.494;2023-04-15T02:08:03;65.28;;;29.15;;
9767;SDS011;4923;52.520;13.494;2023-04-15T02:10:50;53.22;;;24.75;;
9767;SDS011;4923;52.520;13.494;2023-04-15T02:13:37;53.58;;;25.17;;
9767;SDS011;4923;52.520;13.494;2023-04-15T02:16:25;52.30;;;24.25;;
9767;SDS011;4923;52.520;13.494;2023-04-15T02:19:12;51.50;;;24.40;;
9767;SDS011;4923;52.520;13.494;2023-04-15T02:21:59;48.65;;;26.42;;
9767;SDS011;4923;52.520;13.494;2023-04-15T02:24:47;45.97;;;26.15;;
9767;SDS011;4923;52.520;13.494;2023-04-15T02:27:34;52.15;;;25.67;;
9767;SDS011;4923;52.520;13.494;2023-04-15T02:30:21;53.33;;;26.30;;
9767;SDS011;4923;52.520;13.494;2023-04-15T02:33:11;49.00;;;25.27;;
9767;SDS011;4923;52.520;13.494;2023-04-15T02:35:57;55.13;;;24.85;;
9767;SDS011;4923;52.520;13.494;2023-04-15T02:38:44;50.35;;;24.85;;
9767;SDS011;4923;52.520;13.494;2023-04-15T02:41:31;48.92;;;24.27;;
9767;SDS011;4923;52.520;13.494;2023-04-15T02:44:18;48.95;;;24.67;;
9767;SDS011;4923;52.520;13.494;2023-04-15T02:47:06;46.40;;;24.45;;
9767;SDS011;4923;52.520;13.494;2023-04-15T02:49:54;54.35;;;24.63;;
9767;SDS011;4923;52.520;13.494;2023-04-15T02:52:42;45.20;;;23.75;;
9767;SDS011;4923;52.520;13.494;2023-04-15T02:55:30;44.00;;;23.38;;
9767;SDS011;4923;52.520;13.494;2023-04-15T02:58:17;40.65;;;23.17;;
9767;SDS011;4923;52.520;13.494;2023-04-15T03:01:03;48.78;;;22.48;;
9767;SDS011;4923;52.520;13.494;2023-04-15T03:03:51;46.00;;;23.60;;
9767;SDS011;4923;52.520;13.494;2023-04-15T03:06:40;47.08;;;24.25;;
9767;SDS011;4923;52.520;13.494;2023-04-15T03:09:26;44.65;;;24.33;;
9767;SDS011;4923;52.520;13.494;2023-04-15T03:12:13;41.17;;;22.23;;
9767;SDS011;4923;52.520;13.494;2023-04-15T03:15:00;46.38;;;24.15;;
9767;SDS011;4923;52.520;13.494;2023-04-15T03:17:47;46.60;;;23.10;;
9767;SDS011;4923;52.520;13.494;2023-04-15T03:20:34;52.33;;;23.10;;
9767;SDS011;4923;52.520;13.494;2023-04-15T03:23:23;41.22;;;21.98;;
9767;SDS011;4923;52.520;13.494;2023-04-15T03:26:10;39.67;;;21.27;;
9767;SDS011;4923;52.520;13.494;2023-04-15T03:29:09;42.92;;;20.67;;
9767;SDS011;4923;52.520;13.494;2023-04-15T03:31:56;37.55;;;21.50;;
9767;SDS011;4923;52.520;13.494;2023-04-15T03:34:43;34.13;;;20.63;;
9767;SDS011;4923;52.520;13.494;2023-04-15T03:37:30;37.05;;;20.38;;
9767;SDS011;4923;52.520;13.494;2023-04-15T03:40:20;37.00;;;21.00;;
9767;SDS011;4923;52.520;13.494;2023-04-15T03:43:07;35.05;;;20.42;;
9767;SDS011;4923;52.520;13.494;2023-04-15T03:45:54;36.25;;;20.27;;
9767;SDS011;4923;52.520;13.494;2023-04-15T03:48:41;42.15;;;20.20;;
9767;SDS011;4923;52.520;13.494;2023-04-15T03:51:27;31.55;;;18.98;;
9767;SDS011;4923;52.520;13.494;2023-04-15T03:54:15;37.25;;;18.55;;
9767;SDS011;4923;52.520;13.494;2023-04-15T03:57:03;31.00;;;17.65;;
9767;SDS011;4923;52.520;13.494;2023-04-15T03:59:50;35.15;;;18.73;;
9767;SDS011;4923;52.520;13.494;2023-04-15T04:02:37;28.65;;;17.65;;
9767;SDS011;4923;52.520;13.494;2023-04-15T04:05:24;27.17;;;18.13;;
9767;SDS011;4923;52.520;13.494;2023-04-15T04:08:11;34.17;;;18.33;;
9767;SDS011;4923;52.520;13.494;2023-04-15T04:11:00;29.05;;;17.10;;
9767;SDS011;4923;52.520;13.494;2023-04-15T04:13:48;39.55;;;18.90;;
9767;SDS011;4923;52.520;13.494;2023-04-15T04:16:35;24.65;;;16.35;;
9767;SDS011;4923;52.520;13.494;2023-04-15T04:19:22;29.75;;;17.48;;
9767;SDS011;4923;52.520;13.494;2023-04-15T04:22:09;27.50;;;17.45;;
9767;SDS011;4923;52.520;13.494;2023-04-15T04:24:56;25.05;;;16.40;;
9767;SDS011;4923;52.520;13.494;2023-04-15T04:27:44;26.13;;;16.33;;
9767;SDS011;4923;52.520;13.494;2023-04-15T04:30:33;24.95;;;16.58;;
9767;SDS011;4923;52.520;13.494;2023-04-15T04:33:21;30.10;;;14.90;;
9767;SDS011;4923;52.520;13.494;2023-04-15T04:36:07;25.27;;;15.75;;
9767;SDS011;4923;52.520;13.494;2023-04-15T04:38:54;22.23;;;15.32;;
9767;SDS011;4923;52.520;13.494;2023-04-15T04:41:41;32.70;;;15.18;;
9767;SDS011;4923;52.520;13.494;2023-04-15T04:44:28;26.08;;;16.48;;
9767;SDS011;4923;52.520;13.494;2023-04-15T04:47:16;24.77;;;15.93;;
9767;SDS011;4923;52.520;13.494;2023-04-15T04:50:03;18.70;;;14.23;;
9767;SDS011;4923;52.520;13.494;2023-04-15T04:52:51;22.73;;;15.60;;
9767;SDS011;4923;52.520;13.494;2023-04-15T04:55:38;19.15;;;13.55;;
9767;SDS011;4923;52.520;13.494;2023-04-15T04:58:24;22.67;;;14.80;;
9767;SDS011;4923;52.520;13.494;2023-04-15T05:01:11;21.95;;;14.98;;
9767;SDS011;4923;52.520;13.494;2023-04-15T05:03:59;20.83;;;15.07;;
9767;SDS011;4923;52.520;13.494;2023-04-15T05:06:46;23.00;;;14.23;;
9767;SDS011;4923;52.520;13.494;2023-04-15T05:09:33;20.25;;;13.30;;
9767;SDS011;4923;52.520;13.494;2023-04-15T05:12:21;24.42;;;14.52;;
9767;SDS011;4923;52.520;13.494;2023-04-15T05:15:08;14.45;;;11.75;;
9767;SDS011;4923;52.520;13.494;2023-04-15T05:17:55;21.10;;;13.77;;
9767;SDS011;4923;52.520;13.494;2023-04-15T05:20:43;18.40;;;11.95;;
9767;SDS011;4923;52.520;13.494;2023-04-15T05:23:30;15.45;;;12.63;;
9767;SDS011;4923;52.520;13.494;2023-04-15T05:26:17;15.90;;;11.45;;
9767;SDS011;4923;52.520;13.494;2023-04-15T05:29:04;15.48;;;11.77;;
9767;SDS011;4923;52.520;13.494;2023-04-15T05:31:51;13.77;;;11.38;;
9767;SDS011;4923;52.520;13.494;2023-04-15T05:34:38;15.40;;;11.00;;
9767;SDS011;4923;52.520;13.494;2023-04-15T05:37:26;17.65;;;10.85;;
9767;SDS011;4923;52.520;13.494;2023-04-15T05:40:13;15.23;;;10.77;;
9767;SDS011;4923;52.520;13.494;2023-04-15T05:43:00;16.30;;;11.18;;
9767;SDS011;4923;52.520;13.494;2023-04-15T05:45:47;13.23;;;11.23;;
9767;SDS011;4923;52.520;13.494;2023-04-15T05:48:34;13.75;;;10.63;;
9767;SDS011;4923;52.520;13.494;2023-04-15T05:51:20;10.70;;;9.57;;
9767;SDS011;4923;52.520;13.494;2023-04-15T05:54:09;15.20;;;10.40;;
9767;SDS011;4923;52.520;13.494;2023-04-15T05:56:55;10.50;;;9.40;;
9767;SDS011;4923;52.520;13.494;2023-04-15T05:59:43;12.73;;;10.02;;
9767;SDS011;4923;52.520;13.494;2023-04-15T06:02:30;12.20;;;9.55;;
9767;SDS011;4923;52.520;13.494;2023-04-15T06:05:17;12.88;;;10.68;;
9767;SDS011;4923;52.520;13.494;2023-04-15T06:08:04;10.85;;;9.27;;
9767;SDS011;4923;52.520;13.494;2023-04-15T06:10:53;14.75;;;10.10;;
9767;SDS011;4923;52.520;13.494;2023-04-15T06:13:40;11.18;;;9.20;;
9767;SDS011;4923;52.520;13.494;2023-04-15T06:16:27;10.30;;;9.27;;
9767;SDS011;4923;52.520;13.494;2023-04-15T06:19:14;13.60;;;9.30;;
9767;SDS011;4923;52.520;13.494;2023-04-15T06:22:01;12.63;;;10.68;;
9767;SDS011;4923;52.520;13.494;2023-04-15T06:24:48;11.27;;;9.00;;
9767;SDS011;4923;52.520;13.494;2023-04-15T06:27:36;11.50;;;8.85;;
9767;SDS011;4923;52.520;13.494;2023-04-15T06:30:23;12.15;;;9.23;;
9767;SDS011;4923;52.520;13.494;2023-04-15T06:33:10;8.88;;;7.97;;
9767;SDS011;4923;52.520;13.494;2023-04-15T06:35:57;18.15;;;8.27;;
9767;SDS011;4923;52.520;13.494;2023-04-15T06:38:44;10.35;;;8.15;;
9767;SDS011;4923;52.520;13.494;2023-04-15T06:41:31;11.43;;;7.63;;
9767;SDS011;4923;52.520;13.494;2023-04-15T06:44:19;15.13;;;7.82;;
9767;SDS011;4923;52.520;13.494;2023-04-15T06:47:06;10.48;;;8.38;;
9767;SDS011;4923;52.520;13.494;2023-04-15T06:49:54;10.40;;;7.95;;
9767;SDS011;4923;52.520;13.494;2023-04-15T06:52:40;9.90;;;6.95;;
9767;SDS011;4923;52.520;13.494;2023-04-15T06:55:27;9.98;;;7.60;;
9767;SDS011;4923;52.520;13.494;2023-04-15T06:58:15;7.70;;;7.10;;
9767;SDS011;4923;52.520;13.494;2023-04-15T07:01:04;7.57;;;6.80;;
9767;SDS011;4923;52.520;13.494;2023-04-15T07:03:50;10.77;;;6.72;;
9767;SDS011;4923;52.520;13.494;2023-04-15T07:06:37;10.38;;;7.47;;
9767;SDS011;4923;52.520;13.494;2023-04-15T07:09:24;7.70;;;6.90;;
9767;SDS011;4923;52.520;13.494;2023-04-15T07:12:11;9.70;;;6.57;;
9767;SDS011;4923;52.520;13.494;2023-04-15T07:14:58;10.15;;;6.15;;
9767;SDS011;4923;52.520;13.494;2023-04-15T07:17:46;11.02;;;7.43;;
9767;SDS011;4923;52.520;13.494;2023-04-15T07:20:33;6.82;;;6.18;;
9767;SDS011;4923;52.520;13.494;2023-04-15T07:23:20;7.03;;;6.30;;
9767;SDS011;4923;52.520;13.494;2023-04-15T07:26:07;11.52;;;6.53;;
9767;SDS011;4923;52.520;13.494;2023-04-15T07:28:55;7.57;;;5.65;;
9767;SDS011;4923;52.520;13.494;2023-04-15T07:31:42;6.93;;;6.30;;
9767;SDS011;4923;52.520;13.494;2023-04-15T07:34:30;7.97;;;7.18;;
9767;SDS011;4923;52.520;13.494;2023-04-15T07:37:17;7.53;;;6.97;;
9767;SDS011;4923;52.520;13.494;2023-04-15T07:40:04;7.40;;;6.15;;
9767;SDS011;4923;52.520;13.494;2023-04-15T07:42:53;7.20;;;6.50;;
9767;SDS011;4923;52.520;13.494;2023-04-15T07:45:41;9.77;;;7.60;;
9767;SDS011;4923;52.520;13.494;2023-04-15T07:48:28;7.43;;;6.82;;
9767;SDS011;4923;52.520;13.494;2023-04-15T07:51:17;8.88;;;8.07;;
9767;SDS011;4923;52.520;13.494;2023-04-15T07:54:05;10.60;;;7.45;;
9767;SDS011;4923;52.520;13.494;2023-04-15T07:56:52;8.60;;;7.60;;
9767;SDS011;4923;52.520;13.494;2023-04-15T07:59:39;8.98;;;7.82;;
9767;SDS011;4923;52.520;13.494;2023-04-15T08:02:26;8.80;;;8.00;;
9767;SDS011;4923;52.520;13.494;2023-04-15T08:05:12;10.20;;;7.93;;
9767;SDS011;4923;52.520;13.494;2023-04-15T08:08:01;8.45;;;7.55;;
9767;SDS011;4923;52.520;13.494;2023-04-15T08:10:48;9.15;;;8.13;;
9767;SDS011;4923;52.520;13.494;2023-04-15T08:13:35;7.53;;;6.97;;
9767;SDS011;4923;52.520;13.494;2023-04-15T08:16:23;8.57;;;7.78;;
9767;SDS011;4923;52.520;13.494;2023-04-15T08:19:11;8.93;;;7.95;;
9767;SDS011;4923;52.520;13.494;2023-04-15T08:21:58;23.95;;;8.20;;
9767;SDS011;4923;52.520;13.494;2023-04-15T08:24:47;9.73;;;7.78;;
9767;SDS011;4923;52.520;13.494;2023-04-15T08:27:33;10.18;;;7.68;;
9767;SDS011;4923;52.520;13.494;2023-04-15T08:30:20;9.10;;;8.20;;
9767;SDS011;4923;52.520;13.494;2023-04-15T08:33:08;11.13;;;9.00;;
9767;SDS011;4923;52.520;13.494;2023-04-15T08:35:55;9.95;;;8.95;;
9767;SDS011;4923;52.520;13.494;2023-04-15T08:38:43;9.77;;;7.90;;
9767;SDS011;4923;52.520;13.494;2023-04-15T08:41:33;8.73;;;7.93;;
9767;SDS011;4923;52.520;13.494;2023-04-15T08:44:25;9.68;;;8.38;;
9767;SDS011;4923;52.520;13.494;2023-04-15T08:47:14;8.57;;;7.85;;
9767;SDS011;4923;52.520;13.494;2023-04-15T08:50:07;10.98;;;8.73;;
9767;SDS011;4923;52.520;13.494;2023-04-15T08:52:55;10.10;;;8.25;;
9767;SDS011;4923;52.520;13.494;2023-04-15T08:55:45;8.40;;;7.63;;
9767;SDS011;4923;52.520;13.494;2023-04-15T08:58:36;8.73;;;8.02;;
9767;SDS011;4923;52.520;13.494;2023-04-15T09:01:23;10.10;;;8.68;;
9767;SDS011;4923;52.520;13.494;2023-04-15T09:04:11;9.57;;;8.52;;
9767;SDS011;4923;52.520;13.494;2023-04-15T09:06:58;9.52;;;8.63;;
9767;SDS011;4923;52.520;13.494;2023-04-15T09:09:44;9.52;;;8.60;;
9767;SDS011;4923;52.520;13.494;2023-04-15T09:12:32;8.65;;;7.85;;
9767;SDS011;4923;52.520;13.494;2023-04-15T09:15:21;8.88;;;8.07;;
9767;SDS011;4923;52.520;13.494;2023-04-15T09:18:11;8.50;;;7.82;;
9767;SDS011;4923;52.520;13.494;2023-04-15T09:21:12;8.05;;;7.35;;
9767;SDS011;4923;52.520;13.494;2023-04-15T09:24:01;9.00;;;8.20;;
9767;SDS011;4923;52.520;13.494;2023-04-15T09:26:51;8.23;;;7.53;;
9767;SDS011;4923;52.520;13.494;2023-04-15T09:29:40;8.77;;;7.10;;
9767;SDS011;4923;52.520;13.494;2023-04-15T09:32:28;8.48;;;7.65;;
9767;SDS011;4923;52.520;13.494;2023-04-15T09:35:15;9.13;;;7.50;;
9767;SDS011;4923;52.520;13.494;2023-04-15T09:38:03;8.45;;;7.18;;
9767;SDS011;4923;52.520;13.494;2023-04-15T09:40:51;7.57;;;6.97;;
9767;SDS011;4923;52.520;13.494;2023-04-15T09:43:39;8.80;;;8.02;;
9767;SDS011;4923;52.520;13.494;2023-04-15T09:46:41;8.32;;;7.53;;
9767;SDS011;4923;52.520;13.494;2023-04-15T09:49:30;10.65;;;9.38;;
9767;SDS011;4923;52.520;13.494;2023-04-15T09:52:17;9.25;;;8.48;;
9767;SDS011;4923;52.520;13.494;2023-04-15T09:55:05;7.72;;;7.13;;
9767;SDS011;4923;52.520;13.494;2023-04-15T09:57:52;7.15;;;6.55;;
9767;SDS011;4923;52.520;13.494;2023-04-15T10:00:39;8.90;;;7.63;;
9767;SDS011;4923;52.520;13.494;2023-04-15T10:03:27;9.23;;;8.05;;
9767;SDS011;4923;52.520;13.494;2023-04-15T10:06:17;8.93;;;7.00;;
9767;SDS011;4923;52.520;13.494;2023-04-15T10:09:04;8.45;;;7.65;;
9767;SDS011;4923;52.520;13.494;2023-04-15T10:11:52;8.57;;;7.78;;
9767;SDS011;4923;52.520;13.494;2023-04-15T10:14:39;7.13;;;6.50;;
9767;SDS011;4923;52.520;13.494;2023-04-15T10:17:28;8.65;;;8.02;;
9767;SDS011;4923;52.520;13.494;2023-04-15T10:20:18;7.95;;;7.40;;
9767;SDS011;4923;52.520;13.494;2023-04-15T10:23:07;8.27;;;7.63;;
9767;SDS011;4923;52.520;13.494;2023-04-15T10:25:55;7.85;;;7.28;;
9767;SDS011;4923;52.520;13.494;2023-04-15T10:28:44;7.03;;;6.53;;
9767;SDS011;4923;52.520;13.494;2023-04-15T10:31:33;8.05;;;7.25;;
9767;SDS011;4923;52.520;13.494;2023-04-15T10:34:22;7.80;;;7.20;;
9767;SDS011;4923;52.520;13.494;2023-04-15T10:37:09;7.18;;;6.57;;
9767;SDS011;4923;52.520;13.494;2023-04-15T10:39:58;5.72;;;5.43;;
9767;SDS011;4923;52.520;13.494;2023-04-15T10:42:44;10.60;;;7.22;;
9767;SDS011;4923;52.520;13.494;2023-04-15T10:45:32;7.25;;;6.60;;
9767;SDS011;4923;52.520;13.494;2023-04-15T10:48:20;7.93;;;7.25;;
9767;SDS011;4923;52.520;13.494;2023-04-15T10:51:07;6.95;;;6.38;;
9767;SDS011;4923;52.520;13.494;2023-04-15T10:53:58;7.25;;;6.20;;
9767;SDS011;4923;52.520;13.494;2023-04-15T10:56:47;7.43;;;6.82;;
9767;SDS011;4923;52.520;13.494;2023-04-15T10:59:37;6.38;;;5.97;;
9767;SDS011;4923;52.520;13.494;2023-04-15T11:02:45;6.47;;;6.07;;
9767;SDS011;4923;52.520;13.494;2023-04-15T11:05:48;7.30;;;6.80;;
9767;SDS011;4923;52.520;13.494;2023-04-15T11:08:52;7.40;;;6.72;;
9767;SDS011;4923;52.520;13.494;2023-04-15T11:14:52;7.68;;;7.07;;
9767;SDS011;4923;52.520;13.494;2023-04-15T11:17:39;8.80;;;7.90;;
9767;SDS011;4923;52.520;13.494;2023-04-15T11:20:26;8.63;;;7.75;;
9767;SDS011;4923;52.520;13.494;2023-04-15T11:23:13;6.93;;;6.30;;
9767;SDS011;4923;52.520;13.494;2023-04-15T11:26:02;6.82;;;6.30;;
9767;SDS011;4923;52.520;13.494;2023-04-15T11:28:54;6.68;;;6.15;;
9767;SDS011;4923;52.520;13.494;2023-04-15T11:31:42;7.07;;;6.47;;
9767;SDS011;4923;52.520;13.494;2023-04-15T11:34:33;7.10;;;6.60;;
9767;SDS011;4923;52.520;13.494;2023-04-15T11:37:26;7.70;;;7.00;;
9767;SDS011;4923;52.520;13.494;2023-04-15T11:40:14;6.60;;;6.10;;
9767;SDS011;4923;52.520;13.494;2023-04-15T11:43:05;7.05;;;6.55;;
9767;SDS011;4923;52.520;13.494;2023-04-15T11:45:55;7.32;;;6.68;;
9767;SDS011;4923;52.520;13.494;2023-04-15T11:48:44;6.70;;;6.20;;
9767;SDS011;4923;52.520;13.494;2023-04-15T11:51:32;6.90;;;6.40;;
9767;SDS011;4923;52.520;13.494;2023-04-15T11:54:20;7.22;;;6.32;;
9767;SDS011;4923;52.520;13.494;2023-04-15T11:57:10;6.47;;;6.07;;
9767;SDS011;4923;52.520;13.494;2023-04-15T11:59:57;5.75;;;5.18;;
9767;SDS011;4923;52.520;13.494;2023-04-15T12:02:46;5.35;;;4.95;;
9767;SDS011;4923;52.520;13.494;2023-04-15T12:05:32;6.22;;;5.75;;
9767;SDS011;4923;52.520;13.494;2023-04-15T12:08:19;6.43;;;5.93;;
9767;SDS011;4923;52.520;13.494;2023-04-15T12:11:06;6.38;;;5.97;;
9767;SDS011;4923;52.520;13.494;2023-04-15T12:13:53;6.22;;;5.72;;
9767;SDS011;4923;52.520;13.494;2023-04-15T12:16:43;7.82;;;6.78;;
9767;SDS011;4923;52.520;13.494;2023-04-15T12:19:33;6.05;;;5.65;;
9767;SDS011;4923;52.520;13.494;2023-04-15T12:22:22;6.43;;;5.90;;
9767;SDS011;4923;52.520;13.494;2023-04-15T12:25:09;29.77;;;20.35;;
9767;SDS011;4923;52.520;13.494;2023-04-15T12:27:56;44.08;;;26.73;;
9767;SDS011;4923;52.520;13.494;2023-04-15T12:30:47;11.45;;;8.30;;
9767;SDS011;4923;52.520;13.494;2023-04-15T12:33:35;4.88;;;4.57;;
9767;SDS011;4923;52.520;13.494;2023-04-15T12:36:23;10.73;;;8.95;;
9767;SDS011;4923;52.520;13.494;2023-04-15T12:39:10;9.38;;;8.40;;
9767;SDS011;4923;52.520;13.494;2023-04-15T12:41:58;6.32;;;5.80;;
9767;SDS011;4923;52.520;13.494;2023-04-15T12:44:45;5.45;;;5.03;;
9767;SDS011;4923;52.520;13.494;2023-04-15T12:47:32;5.35;;;5.05;;
9767;SDS011;4923;52.520;13.494;2023-04-15T12:50:19;10.30;;;8.57;;
9767;SDS011;4923;52.520;13.494;2023-04-15T12:53:07;17.58;;;13.32;;
9767;SDS011;4923;52.520;13.494;2023-04-15T12:55:54;5.00;;;4.40;;
9767;SDS011;4923;52.520;13.494;2023-04-15T12:58:41;4.68;;;4.38;;
9767;SDS011;4923;52.520;13.494;2023-04-15T13:01:28;5.50;;;5.10;;
9767;SDS011;4923;52.520;13.494;2023-04-15T13:04:15;5.63;;;5.32;;
9767;SDS011;4923;52.520;13.494;2023-04-15T13:07:03;6.43;;;6.03;;
9767;SDS011;4923;52.520;13.494;2023-04-15T13:09:51;7.00;;;6.45;;
9767;SDS011;4923;52.520;13.494;2023-04-15T13:12:38;5.07;;;4.80;;
9767;SDS011;4923;52.520;13.494;2023-04-15T13:15:25;8.45;;;6.97;;
9767;SDS011;4923;52.520;13.494;2023-04-15T13:18:13;5.40;;;5.00;;
9767;SDS011;4923;52.520;13.494;2023-04-15T13:21:00;6.85;;;6.25;;
9767;SDS011;4923;52.520;13.494;2023-04-15T13:23:47;6.07;;;5.60;;
9767;SDS011;4923;52.520;13.494;2023-04-15T13:26:36;5.68;;;5.28;;
9767;SDS011;4923;52.520;13.494;2023-04-15T13:29:23;5.30;;;4.90;;
9767;SDS011;4923;52.520;13.494;2023-04-15T13:32:10;2.80;;;2.70;;
9767;SDS011;4923;52.520;13.494;2023-04-15T13:34:56;3.90;;;3.78;;
9767;SDS011;4923;52.520;13.494;2023-04-15T13:37:43;2.58;;;2.55;;
9767;SDS011;4923;52.520;13.494;2023-04-15T13:40:30;2.30;;;2.20;;
9767;SDS011;4923;52.520;13.494;2023-04-15T13:43:18;2.60;;;2.50;;
9767;SDS011;4923;52.520;13.494;2023-04-15T13:46:05;3.53;;;3.35;;
9767;SDS011;4923;52.520;13.494;2023-04-15T13:48:52;3.55;;;3.35;;
9767;SDS011;4923;52.520;13.494;2023-04-15T13:51:39;4.57;;;4.28;;
9767;SDS011;4923;52.520;13.494;2023-04-15T13:54:26;4.55;;;3.80;;
9767;SDS011;4923;52.520;13.494;2023-04-15T13:57:13;3.53;;;3.33;;
9767;SDS011;4923;52.520;13.494;2023-04-15T14:00:02;3.38;;;3.17;;
9767;SDS011;4923;52.520;13.494;2023-04-15T14:02:50;3.70;;;3.60;;
9767;SDS011;4923;52.520;13.494;2023-04-15T14:05:37;3.83;;;3.60;;
9767;SDS011;4923;52.520;13.494;2023-04-15T14:08:24;3.30;;;3.15;;
9767;SDS011;4923;52.520;13.494;2023-04-15T14:11:11;19.92;;;10.30;;
9767;SDS011;4923;52.520;13.494;2023-04-15T14:13:58;32.28;;;14.90;;
9767;SDS011;4923;52.520;13.494;2023-04-15T14:16:46;8.05;;;6.10;;
9767;SDS011;4923;52.520;13.494;2023-04-15T14:19:33;12.43;;;7.72;;
9767;SDS011;4923;52.520;13.494;2023-04-15T14:22:20;4.20;;;3.90;;
9767;SDS011;4923;52.520;13.494;2023-04-15T14:25:07;4.30;;;3.63;;
9767;SDS011;4923;52.520;13.494;2023-04-15T14:27:54;2.92;;;2.83;;
9767;SDS011;4923;52.520;13.494;2023-04-15T14:30:41;4.53;;;3.38;;
9767;SDS011;4923;52.520;13.494;2023-04-15T14:33:30;3.72;;;3.58;;
9767;SDS011;4923;52.520;13.494;2023-04-15T14:36:17;3.70;;;3.60;;
9767;SDS011;4923;52.520;13.494;2023-04-15T14:39:04;3.03;;;2.70;;
9767;SDS011;4923;52.520;13.494;2023-04-15T14:41:51;3.35;;;3.20;;
9767;SDS011;4923;52.520;13.494;2023-04-15T14:44:38;4.18;;;3.88;;
9767;SDS011;4923;52.520;13.494;2023-04-15T14:47:25;3.88;;;3.67;;
9767;SDS011;4923;52.520;13.494;2023-04-15T14:50:13;3.33;;;3.22;;
9767;SDS011;4923;52.520;13.494;2023-04-15T14:53:00;4.10;;;3.80;;
9767;SDS011;4923;52.520;13.494;2023-04-15T14:55:47;3.58;;;3.47;;
9767;SDS011;4923;52.520;13.494;2023-04-15T14:58:34;3.25;;;3.15;;
9767;SDS011;4923;52.520;13.494;2023-04-15T15:01:21;3.13;;;3.03;;
9767;SDS011;4923;52.520;13.494;2023-04-15T15:04:08;3.40;;;3.20;;
9767;SDS011;4923;52.520;13.494;2023-04-15T15:06:57;3.15;;;2.95;;
9767;SDS011;4923;52.520;13.494;2023-04-15T15:09:44;4.25;;;3.95;;
9767;SDS011;4923;52.520;13.494;2023-04-15T15:12:31;3.90;;;3.75;;
9767;SDS011;4923;52.520;13.494;2023-04-15T15:15:18;3.63;;;3.53;;
9767;SDS011;4923;52.520;13.494;2023-04-15T15:18:05;3.92;;;3.80;;
9767;SDS011;4923;52.520;13.494;2023-04-15T15:20:52;3.63;;;3.30;;
9767;SDS011;4923;52.520;13.494;2023-04-15T15:23:40;2.97;;;2.88;;
9767;SDS011;4923;52.520;13.494;2023-04-15T15:26:27;3.15;;;3.05;;
9767;SDS011;4923;52.520;13.494;2023-04-15T15:29:14;3.63;;;2.38;;
9767;SDS011;4923;52.520;13.494;2023-04-15T15:32:01;2.55;;;2.50;;
9767;SDS011;4923;52.520;13.494;2023-04-15T15:34:48;2.42;;;2.33;;
9767;SDS011;4923;52.520;13.494;2023-04-15T15:37:34;3.00;;;2.80;;
9767;SDS011;4923;52.520;13.494;2023-04-15T15:40:23;2.53;;;2.53;;
9767;SDS011;4923;52.520;13.494;2023-04-15T15:43:10;2.08;;;2.05;;
9767;SDS011;4923;52.520;13.494;2023-04-15T15:45:57;1.80;;;1.70;;
9767;SDS011;4923;52.520;13.494;2023-04-15T15:48:44;1.90;;;1.80;;
9767;SDS011;4923;52.520;13.494;2023-04-15T15:51:31;6.15;;;2.45;;
9767;SDS011;4923;52.520;13.494;2023-04-15T15:54:17;3.13;;;3.03;;
9767;SDS011;4923;52.520;13.494;2023-04-15T15:57:06;3.20;;;3.10;;
9767;SDS011;4923;52.520;13.494;2023-04-15T15:59:53;3.08;;;2.97;;
9767;SDS011;4923;52.520;13.494;2023-04-15T16:02:41;3.92;;;3.60;;
9767;SDS011;4923;52.520;13.494;2023-04-15T16:05:28;3.38;;;3.28;;
9767;SDS011;4923;52.520;13.494;2023-04-15T16:08:15;2.78;;;2.67;;
9767;SDS011;4923;52.520;13.494;2023-04-15T16:11:02;3.00;;;2.90;;
9767;SDS011;4923;52.520;13.494;2023-04-15T16:13:50;2.50;;;2.50;;
9767;SDS011;4923;52.520;13.494;2023-04-15T16:16:37;2.97;;;2.45;;
9767;SDS011;4923;52.520;13.494;2023-04-15T16:19:25;3.20;;;3.00;;
9767;SDS011;4923;52.520;13.494;2023-04-15T16:22:11;3.13;;;3.03;;
9767;SDS011;4923;52.520;13.494;2023-04-15T16:24:58;4.85;;;2.97;;
9767;SDS011;4923;52.520;13.494;2023-04-15T16:27:45;2.90;;;2.80;;
9767;SDS011;4923;52.520;13.494;2023-04-15T16:30:35;3.95;;;3.15;;
9767;SDS011;4923;52.520;13.494;2023-04-15T16:33:22;6.00;;;5.40;;
9767;SDS011;4923;52.520;13.494;2023-04-15T16:36:09;32.78;;;24.02;;
9767;SDS011;4923;52.520;13.494;2023-04-15T16:38:56;3.42;;;3.30;;
9767;SDS011;4923;52.520;13.494;2023-04-15T16:41:42;7.15;;;6.55;;
9767;SDS011;4923;52.520;13.494;2023-04-15T16:44:29;51.05;;;32.38;;
9767;SDS011;4923;52.520;13.494;2023-04-15T16:47:18;4.50;;;4.20;;
9767;SDS011;4923;52.520;13.494;2023-04-15T16:50:05;6.75;;;6.20;;
9767;SDS011;4923;52.520;13.494;2023-04-15T16:52:53;2.90;;;2.80;;
9767;SDS011;4923;52.520;13.494;2023-04-15T16:55:40;2.88;;;2.88;;
9767;SDS011;4923;52.520;13.494;2023-04-15T16:58:27;2.88;;;2.78;;